createdAt,value
2022-07-30T00:01:35.948Z,21.79
2022-07-30T00:04:05.273Z,21.77
2022-07-30T00:06:34.056Z,21.75
2022-07-30T00:09:02.660Z,21.74
2022-07-30T00:11:31.107Z,21.72
2022-07-30T00:13:59.605Z,21.68
2022-07-30T00:16:28.970Z,21.65
2022-07-30T00:18:57.595Z,21.62
2022-07-30T00:21:36.286Z,21.60
2022-07-30T00:24:08.907Z,21.58
2022-07-30T00:26:37.686Z,21.57
2022-07-30T00:29:07.035Z,21.55
2022-07-30T00:31:36.189Z,21.51
2022-07-30T00:34:05.183Z,21.50
2022-07-30T00:36:33.668Z,21.48
2022-07-30T00:39:02.680Z,21.47
2022-07-30T00:41:31.243Z,21.46
2022-07-30T00:43:59.932Z,21.45
2022-07-30T00:46:29.129Z,21.43
2022-07-30T00:48:57.875Z,21.39
2022-07-30T00:51:26.407Z,21.36
2022-07-30T00:53:55.090Z,21.34
2022-07-30T00:56:23.881Z,21.32
2022-07-30T00:58:52.360Z,21.31
2022-07-30T01:01:21.635Z,21.30
2022-07-30T01:03:50.555Z,21.27
2022-07-30T01:06:19.344Z,21.23
2022-07-30T01:08:47.826Z,21.18
2022-07-30T01:11:17.051Z,21.14
2022-07-30T01:13:46.125Z,21.12
2022-07-30T01:16:15.399Z,21.11
2022-07-30T01:19:05.106Z,21.10
2022-07-30T01:21:40.037Z,21.08
2022-07-30T01:24:24.496Z,21.05
2022-07-30T01:26:54.596Z,21.04
2022-07-30T01:29:25.341Z,21.00
2022-07-30T01:32:00.460Z,20.96
2022-07-30T01:34:36.755Z,20.93
2022-07-30T01:37:09.354Z,20.89
2022-07-30T01:39:40.052Z,20.87
2022-07-30T01:42:12.345Z,20.83
2022-07-30T01:44:42.849Z,20.81
2022-07-30T01:47:13.223Z,20.81
2022-07-30T01:49:43.483Z,20.80
2022-07-30T01:52:12.627Z,20.77
2022-07-30T01:54:44.483Z,20.73
2022-07-30T01:57:16.034Z,20.70
2022-07-30T01:59:48.138Z,20.66
2022-07-30T02:02:18.248Z,20.64
2022-07-30T02:04:48.036Z,20.62
2022-07-30T02:07:34.490Z,20.60
2022-07-30T02:10:19.717Z,20.57
2022-07-30T02:12:56.595Z,20.55
2022-07-30T02:15:33.055Z,20.51
2022-07-30T02:18:08.315Z,20.49
2022-07-30T02:20:38.491Z,20.46
2022-07-30T02:23:11.687Z,20.46
2022-07-30T02:25:46.896Z,20.44
2022-07-30T02:28:17.554Z,20.43
2022-07-30T02:30:55.358Z,20.41
2022-07-30T02:33:27.867Z,20.40
2022-07-30T02:35:58.849Z,20.40
2022-07-30T02:38:30.265Z,20.38
2022-07-30T02:41:02.045Z,20.36
2022-07-30T02:43:35.537Z,20.34
2022-07-30T02:46:07.631Z,20.32
2022-07-30T02:49:11.163Z,20.30
2022-07-30T02:51:41.642Z,20.29
2022-07-30T02:54:12.614Z,20.28
2022-07-30T02:56:42.796Z,20.27
2022-07-30T02:59:12.910Z,20.24
2022-07-30T03:01:44.330Z,20.22
2022-07-30T03:04:14.336Z,20.18
2022-07-30T03:06:45.834Z,20.16
2022-07-30T03:09:17.055Z,20.16
2022-07-30T03:11:47.976Z,20.17
2022-07-30T03:14:16.715Z,20.17
2022-07-30T03:16:51.182Z,20.18
2022-07-30T03:19:23.181Z,20.17
2022-07-30T03:21:55.773Z,20.17
2022-07-30T03:24:25.996Z,20.18
2022-07-30T03:26:57.307Z,20.21
2022-07-30T03:29:28.148Z,20.24
2022-07-30T03:31:58.283Z,20.27
2022-07-30T03:34:29.825Z,20.30
2022-07-30T03:36:59.554Z,20.33
2022-07-30T03:39:29.758Z,20.36
2022-07-30T03:41:58.584Z,20.40
2022-07-30T03:44:27.886Z,20.45
2022-07-30T03:46:58.284Z,20.49
2022-07-30T03:49:28.433Z,20.56
2022-07-30T03:51:57.841Z,20.62
2022-07-30T03:54:27.863Z,20.68
2022-07-30T03:57:17.619Z,20.73
2022-07-30T03:59:51.912Z,20.78
2022-07-30T04:02:21.570Z,20.81
2022-07-30T04:05:04.320Z,20.86
2022-07-30T04:07:33.281Z,20.93
2022-07-30T04:10:02.379Z,20.99
2022-07-30T04:12:51.441Z,21.08
2022-07-30T04:16:05.111Z,21.19
2022-07-30T04:18:12.020Z,21.29
2022-07-30T04:20:42.083Z,21.40
2022-07-30T04:23:12.464Z,21.49
2022-07-30T04:25:43.780Z,21.61
2022-07-30T04:28:14.349Z,21.69
2022-07-30T04:30:43.283Z,21.79
2022-07-30T04:33:11.971Z,21.91
2022-07-30T04:35:51.036Z,22.02
2022-07-30T04:38:34.841Z,22.18
2022-07-30T04:41:03.853Z,22.34
2022-07-30T04:43:41.328Z,22.54
2022-07-30T04:46:10.453Z,22.72
2022-07-30T04:48:39.153Z,22.92
2022-07-30T04:51:23.605Z,23.08
2022-07-30T04:53:55.123Z,23.23
2022-07-30T04:56:26.101Z,23.38
2022-07-30T04:58:56.597Z,23.54
2022-07-30T05:01:37.175Z,23.72
2022-07-30T05:04:11.773Z,23.91
2022-07-30T05:06:43.239Z,24.07
2022-07-30T05:09:15.103Z,24.26
2022-07-30T05:11:53.822Z,24.41
2022-07-30T05:14:23.613Z,24.60
2022-07-30T05:16:53.718Z,24.80
2022-07-30T05:19:24.086Z,24.99
2022-07-30T05:21:53.009Z,25.20
2022-07-30T05:24:22.484Z,25.39
2022-07-30T05:26:58.052Z,25.56
2022-07-30T05:29:27.641Z,25.73
2022-07-30T05:32:03.330Z,25.90
2022-07-30T05:34:33.926Z,26.04
2022-07-30T05:37:02.832Z,26.20
2022-07-30T05:39:33.061Z,26.38
2022-07-30T05:42:20.877Z,26.61
2022-07-30T05:44:52.841Z,26.80
2022-07-30T05:47:22.735Z,26.99
2022-07-30T05:49:53.699Z,27.17
2022-07-30T05:52:22.227Z,27.31
2022-07-30T05:54:50.766Z,27.47
2022-07-30T05:57:38.808Z,27.74
2022-07-30T06:00:08.069Z,27.95
2022-07-30T06:02:46.115Z,28.14
2022-07-30T06:05:27.402Z,28.32
2022-07-30T06:07:58.237Z,28.48
2022-07-30T06:10:27.539Z,28.65
2022-07-30T06:12:56.123Z,28.86
2022-07-30T06:15:26.284Z,29.06
2022-07-30T06:18:01.397Z,29.26
2022-07-30T06:20:52.447Z,29.51
2022-07-30T06:23:27.636Z,29.72
2022-07-30T06:26:22.436Z,29.92
2022-07-30T06:28:51.327Z,30.06
2022-07-30T06:31:28.330Z,30.23
2022-07-30T06:33:57.099Z,30.43
2022-07-30T06:36:27.017Z,30.60
2022-07-30T06:39:08.311Z,30.78
2022-07-30T06:41:59.416Z,30.89
2022-07-30T06:44:44.589Z,31.02
2022-07-30T06:47:29.699Z,31.25
2022-07-30T06:50:01.377Z,31.45
2022-07-30T06:52:30.311Z,31.59
2022-07-30T06:54:59.512Z,31.69
2022-07-30T06:57:37.557Z,31.85
2022-07-30T07:00:16.238Z,31.94
2022-07-30T07:02:48.001Z,32.04
2022-07-30T07:05:21.603Z,32.18
2022-07-30T07:07:58.670Z,32.35
2022-07-30T07:10:30.855Z,32.52
2022-07-30T07:13:15.445Z,32.64
2022-07-30T07:15:44.309Z,32.80
2022-07-30T07:18:16.898Z,33.01
2022-07-30T07:20:52.332Z,33.20
2022-07-30T07:23:21.019Z,33.39
2022-07-30T07:25:51.245Z,33.53
2022-07-30T07:28:20.193Z,33.67
2022-07-30T07:30:49.411Z,33.89
2022-07-30T07:33:18.738Z,34.08
2022-07-30T07:35:49.423Z,34.20
2022-07-30T07:38:31.371Z,34.30
2022-07-30T07:41:00.674Z,34.40
2022-07-30T07:43:29.982Z,34.60
2022-07-30T07:46:00.294Z,34.67
2022-07-30T07:48:31.753Z,34.61
2022-07-30T07:51:11.401Z,34.73
2022-07-30T07:53:40.012Z,34.91
2022-07-30T07:56:08.978Z,35.10
2022-07-30T07:58:38.255Z,35.29
2022-07-30T08:01:10.591Z,35.50
2022-07-30T08:04:10.151Z,35.74
2022-07-30T08:06:58.633Z,35.90
2022-07-30T08:09:46.658Z,36.09
2022-07-30T08:12:38.353Z,36.29
2022-07-30T08:15:26.015Z,36.36
2022-07-30T08:17:54.909Z,36.41
2022-07-30T08:20:43.873Z,36.52
2022-07-30T08:23:13.618Z,36.51
2022-07-30T08:25:42.168Z,36.63
2022-07-30T08:28:35.160Z,36.66
2022-07-30T08:31:02.143Z,36.57
2022-07-30T08:33:31.886Z,36.61
2022-07-30T08:36:09.119Z,36.62
2022-07-30T08:38:39.614Z,36.76
2022-07-30T08:41:09.007Z,36.91
2022-07-30T08:43:37.748Z,37.00
2022-07-30T08:46:10.813Z,37.06
2022-07-30T08:48:57.365Z,37.24
2022-07-30T08:51:26.808Z,37.36
2022-07-30T08:54:14.385Z,37.46
2022-07-30T08:56:43.744Z,37.61
2022-07-30T08:59:12.833Z,37.81
2022-07-30T09:01:41.416Z,38.00
2022-07-30T09:04:10.225Z,38.12
2022-07-30T09:06:41.158Z,38.16
2022-07-30T09:09:12.187Z,38.20
2022-07-30T09:11:42.613Z,37.86
2022-07-30T09:14:13.859Z,37.65
2022-07-30T09:16:45.172Z,37.50
2022-07-30T09:19:20.172Z,37.48
2022-07-30T09:22:00.186Z,37.39
2022-07-30T09:25:04.936Z,37.60
2022-07-30T09:28:16.450Z,37.28
2022-07-30T09:31:11.431Z,37.28
2022-07-30T09:33:58.548Z,37.60
2022-07-30T09:36:46.588Z,37.87
2022-07-30T09:39:39.381Z,38.20
2022-07-30T09:42:29.031Z,38.46
2022-07-30T09:45:26.080Z,38.72
2022-07-30T09:48:20.674Z,39.04
2022-07-30T09:50:50.545Z,39.37
2022-07-30T09:53:22.756Z,39.57
2022-07-30T09:55:51.988Z,39.67
2022-07-30T09:58:27.400Z,39.78
2022-07-30T10:01:01.416Z,39.95
2022-07-30T10:03:53.142Z,40.10
2022-07-30T10:06:48.370Z,40.21
2022-07-30T10:09:33.627Z,40.29
2022-07-30T10:12:10.488Z,40.43
2022-07-30T10:14:45.648Z,40.61
2022-07-30T10:17:17.361Z,40.77
2022-07-30T10:20:09.075Z,40.76
2022-07-30T10:22:56.726Z,40.60
2022-07-30T10:25:27.869Z,40.58
2022-07-30T10:28:16.561Z,40.58
2022-07-30T10:30:45.769Z,40.53
2022-07-30T10:33:34.739Z,40.40
2022-07-30T10:36:04.271Z,39.96
2022-07-30T10:38:41.130Z,39.84
2022-07-30T10:41:54.284Z,39.88
2022-07-30T10:44:59.079Z,39.91
2022-07-30T10:47:33.447Z,39.93
2022-07-30T10:50:07.908Z,40.10
2022-07-30T10:52:44.294Z,40.13
2022-07-30T10:55:15.767Z,40.22
2022-07-30T10:58:06.371Z,40.34
2022-07-30T11:00:56.736Z,39.87
2022-07-30T11:03:41.250Z,39.34
2022-07-30T11:06:16.441Z,38.94
2022-07-30T11:08:57.346Z,38.71
2022-07-30T11:12:01.978Z,38.72
2022-07-30T11:14:20.531Z,38.62
2022-07-30T11:16:51.639Z,38.90
2022-07-30T11:19:56.746Z,39.22
2022-07-30T11:22:29.883Z,39.54
2022-07-30T11:24:58.867Z,39.66
2022-07-30T11:27:50.698Z,39.82
2022-07-30T11:30:23.471Z,39.97
2022-07-30T11:32:54.074Z,40.15
2022-07-30T11:35:35.122Z,40.41
2022-07-30T11:38:09.920Z,40.69
2022-07-30T11:41:03.290Z,40.89
2022-07-30T11:43:37.092Z,41.11
2022-07-30T11:46:29.709Z,41.29
2022-07-30T11:49:08.972Z,41.45
2022-07-30T11:51:46.065Z,41.48
2022-07-30T11:54:15.367Z,41.15
2022-07-30T11:56:51.221Z,40.83
2022-07-30T11:59:20.168Z,40.81
2022-07-30T12:01:54.083Z,40.95
2022-07-30T12:04:24.650Z,40.94
2022-07-30T12:06:53.550Z,40.67
2022-07-30T12:09:27.547Z,40.72
2022-07-30T12:11:58.193Z,40.87
2022-07-30T12:14:36.711Z,41.17
2022-07-30T12:17:05.695Z,41.40
2022-07-30T12:19:47.509Z,41.24
2022-07-30T12:22:17.317Z,40.80
2022-07-30T12:24:45.900Z,40.46
2022-07-30T12:27:14.587Z,39.92
2022-07-30T12:29:43.071Z,39.57
2022-07-30T12:32:11.658Z,39.31
2022-07-30T12:34:40.195Z,39.04
2022-07-30T12:37:10.565Z,38.70
2022-07-30T12:39:40.415Z,38.57
2022-07-30T12:42:19.225Z,38.79
2022-07-30T12:44:49.591Z,39.06
2022-07-30T12:47:29.893Z,39.25
2022-07-30T12:50:00.888Z,39.27
2022-07-30T12:52:35.584Z,39.45
2022-07-30T12:55:12.705Z,39.65
2022-07-30T12:57:59.334Z,39.84
2022-07-30T13:00:32.211Z,39.96
2022-07-30T13:03:00.930Z,40.15
2022-07-30T13:05:50.576Z,40.54
2022-07-30T13:08:19.093Z,40.90
2022-07-30T13:11:02.115Z,41.19
2022-07-30T13:13:33.038Z,41.19
2022-07-30T13:16:04.099Z,40.89
2022-07-30T13:18:34.247Z,40.83
2022-07-30T13:21:04.625Z,40.75
2022-07-30T13:23:33.132Z,40.88
2022-07-30T13:26:02.331Z,41.13
2022-07-30T13:28:32.441Z,41.16
2022-07-30T13:31:02.474Z,41.09
2022-07-30T13:33:31.327Z,41.13
2022-07-30T13:35:59.845Z,41.20
2022-07-30T13:38:28.743Z,41.37
2022-07-30T13:41:02.208Z,41.62
2022-07-30T13:43:33.754Z,41.54
2022-07-30T13:46:04.937Z,41.52
2022-07-30T13:48:34.037Z,41.53
2022-07-30T13:51:03.865Z,41.67
2022-07-30T13:53:32.746Z,41.59
2022-07-30T13:56:01.429Z,41.54
2022-07-30T13:58:35.498Z,41.53
2022-07-30T14:01:07.523Z,41.62
2022-07-30T14:03:36.301Z,41.87
2022-07-30T14:06:10.645Z,42.07
2022-07-30T14:08:40.334Z,42.23
2022-07-30T14:11:08.916Z,42.23
2022-07-30T14:13:38.108Z,42.00
2022-07-30T14:16:22.583Z,41.87
2022-07-30T14:18:57.768Z,41.96
2022-07-30T14:21:26.660Z,42.00
2022-07-30T14:23:55.603Z,42.03
2022-07-30T14:26:24.081Z,41.71
2022-07-30T14:28:52.665Z,41.60
2022-07-30T14:31:21.228Z,41.66
2022-07-30T14:33:49.628Z,41.68
2022-07-30T14:36:18.726Z,41.68
2022-07-30T14:38:47.414Z,41.77
2022-07-30T14:41:15.898Z,41.84
2022-07-30T14:43:44.684Z,41.98
2022-07-30T14:46:13.471Z,42.08
2022-07-30T14:48:42.443Z,42.00
2022-07-30T14:51:17.739Z,41.76
2022-07-30T14:53:50.878Z,41.76
2022-07-30T14:56:19.785Z,41.91
2022-07-30T14:58:48.278Z,42.07
2022-07-30T15:01:17.267Z,41.97
2022-07-30T15:03:46.805Z,41.64
2022-07-30T15:06:15.986Z,41.03
2022-07-30T15:08:46.242Z,40.15
2022-07-30T15:11:15.257Z,39.28
2022-07-30T15:13:50.470Z,38.55
2022-07-30T15:16:20.282Z,37.76
2022-07-30T15:18:48.797Z,37.23
2022-07-30T15:21:17.834Z,36.82
2022-07-30T15:23:46.421Z,36.70
2022-07-30T15:26:15.003Z,36.66
2022-07-30T15:28:43.690Z,36.47
2022-07-30T15:31:12.380Z,36.10
2022-07-30T15:33:43.314Z,35.83
2022-07-30T15:36:12.372Z,35.60
2022-07-30T15:38:41.206Z,35.28
2022-07-30T15:41:13.507Z,34.97
2022-07-30T15:43:42.793Z,34.64
2022-07-30T15:46:11.365Z,34.35
2022-07-30T15:48:39.918Z,34.04
2022-07-30T15:51:10.912Z,33.78
2022-07-30T15:53:39.539Z,33.57
2022-07-30T15:56:08.467Z,33.54
2022-07-30T15:58:41.645Z,33.81
2022-07-30T16:01:12.263Z,34.17
2022-07-30T16:03:41.087Z,34.52
2022-07-30T16:06:09.671Z,34.77
2022-07-30T16:08:38.259Z,34.73
2022-07-30T16:11:07.248Z,34.73
2022-07-30T16:13:39.520Z,34.77
2022-07-30T16:16:08.412Z,34.72
2022-07-30T16:18:36.854Z,34.60
2022-07-30T16:21:06.402Z,34.36
2022-07-30T16:23:36.962Z,34.23
2022-07-30T16:26:07.873Z,34.14
2022-07-30T16:28:36.663Z,34.04
2022-07-30T16:31:05.147Z,33.88
2022-07-30T16:33:33.732Z,33.70
2022-07-30T16:36:02.417Z,33.56
2022-07-30T16:38:31.783Z,33.38
2022-07-30T16:41:00.310Z,33.21
2022-07-30T16:43:28.782Z,33.05
2022-07-30T16:45:57.679Z,32.87
2022-07-30T16:48:26.864Z,32.66
2022-07-30T16:50:55.669Z,32.43
2022-07-30T16:53:24.458Z,32.22
2022-07-30T16:55:53.249Z,32.08
2022-07-30T16:58:21.712Z,31.99
2022-07-30T17:00:57.005Z,31.89
2022-07-30T17:03:26.477Z,31.76
2022-07-30T17:05:55.334Z,31.59
2022-07-30T17:08:25.130Z,31.44
2022-07-30T17:10:54.792Z,31.24
2022-07-30T17:13:26.041Z,31.07
2022-07-30T17:15:54.996Z,30.93
2022-07-30T17:19:23.524Z,30.80
2022-07-30T17:25:44.766Z,30.45
2022-07-30T17:28:13.769Z,30.34
2022-07-30T17:30:42.350Z,30.23
2022-07-30T17:33:11.452Z,30.12
2022-07-30T17:35:40.237Z,30.02
2022-07-30T17:38:08.716Z,29.93
2022-07-30T17:40:37.303Z,29.83
2022-07-30T17:43:07.927Z,29.73
2022-07-30T17:45:37.612Z,29.64
2022-07-30T17:48:06.972Z,29.55
2022-07-30T17:50:36.252Z,29.47
2022-07-30T17:53:06.235Z,29.41
2022-07-30T17:55:35.667Z,29.33
2022-07-30T17:58:05.237Z,29.25
2022-07-30T18:00:35.641Z,29.18
2022-07-30T18:03:04.654Z,29.12
2022-07-30T18:05:50.472Z,29.05
2022-07-30T18:08:19.199Z,28.96
2022-07-30T18:10:48.032Z,28.89
2022-07-30T18:13:26.672Z,28.83
2022-07-30T18:15:56.490Z,28.76
2022-07-30T18:18:25.092Z,28.69
2022-07-30T18:20:53.780Z,28.63
2022-07-30T18:23:22.791Z,28.56
2022-07-30T18:25:54.238Z,28.50
2022-07-30T18:29:23.231Z,28.43
2022-07-30T18:32:31.552Z,28.31
2022-07-30T18:35:00.438Z,28.20
2022-07-30T18:37:41.290Z,28.14
2022-07-30T18:40:13.690Z,28.06
2022-07-30T18:42:42.740Z,28.00
2022-07-30T18:45:15.812Z,27.94
2022-07-30T18:47:45.341Z,27.89
2022-07-30T18:50:15.956Z,27.83
2022-07-30T18:52:45.489Z,27.77
2022-07-30T18:55:14.382Z,27.72
2022-07-30T18:57:43.511Z,27.67
2022-07-30T19:00:34.497Z,27.62
2022-07-30T19:03:03.677Z,27.56
2022-07-30T19:05:32.310Z,27.51
2022-07-30T19:08:00.892Z,27.46
2022-07-30T19:10:29.783Z,27.43
2022-07-30T19:12:58.582Z,27.38
2022-07-30T19:15:27.263Z,27.35
2022-07-30T19:17:57.221Z,27.30
2022-07-30T19:20:26.792Z,27.26
2022-07-30T19:23:07.351Z,27.22
2022-07-30T19:25:37.291Z,27.19
2022-07-30T19:28:06.058Z,27.15
2022-07-30T19:30:35.053Z,27.12
2022-07-30T19:33:14.745Z,27.10
2022-07-30T19:35:44.737Z,27.06
2022-07-30T19:38:21.367Z,27.02
2022-07-30T19:40:50.802Z,26.98
2022-07-30T19:43:24.002Z,26.94
2022-07-30T19:45:53.386Z,26.89
2022-07-30T19:48:29.203Z,26.85
2022-07-30T19:51:01.512Z,26.81
2022-07-30T19:53:34.438Z,26.76
2022-07-30T19:56:08.275Z,26.70
2022-07-30T19:58:40.216Z,26.65
2022-07-30T20:01:11.527Z,26.60
2022-07-30T20:03:41.180Z,26.54
2022-07-30T20:06:18.609Z,26.47
2022-07-30T20:08:49.982Z,26.41
2022-07-30T20:11:36.375Z,26.34
2022-07-30T20:14:05.641Z,26.27
2022-07-30T20:16:36.008Z,26.21
2022-07-30T20:19:05.823Z,26.14
2022-07-30T20:21:57.549Z,26.09
2022-07-30T20:24:25.618Z,26.04
2022-07-30T20:26:54.311Z,26.01
2022-07-30T20:29:24.019Z,25.98
2022-07-30T20:31:53.998Z,25.93
2022-07-30T20:34:25.944Z,25.89
2022-07-30T20:36:56.791Z,25.84
2022-07-30T20:39:26.348Z,25.78
2022-07-30T20:42:15.006Z,25.73
2022-07-30T20:44:50.697Z,25.67
2022-07-30T20:47:38.227Z,25.61
2022-07-30T20:50:10.083Z,25.56
2022-07-30T20:52:40.688Z,25.51
2022-07-30T20:55:14.426Z,25.46
2022-07-30T20:58:00.440Z,25.41
2022-07-30T21:00:35.021Z,25.37
2022-07-30T21:03:04.887Z,25.32
2022-07-30T21:05:36.063Z,25.28
2022-07-30T21:08:05.497Z,25.26
2022-07-30T21:10:36.623Z,25.23
2022-07-30T21:13:07.632Z,25.21
2022-07-30T21:15:36.811Z,25.21
2022-07-30T21:18:14.554Z,25.20
2022-07-30T21:20:46.021Z,25.19
2022-07-30T21:23:22.642Z,25.17
2022-07-30T21:26:00.669Z,25.14
2022-07-30T21:28:35.369Z,25.07
2022-07-30T21:31:06.930Z,25.00
2022-07-30T21:33:39.857Z,24.95
2022-07-30T21:36:10.530Z,24.90
2022-07-30T21:38:41.797Z,24.87
2022-07-30T21:41:14.084Z,24.83
2022-07-30T21:43:44.957Z,24.79
2022-07-30T21:46:14.823Z,24.75
2022-07-30T21:48:43.682Z,24.72
2022-07-30T21:51:13.741Z,24.68
2022-07-30T21:53:45.169Z,24.65
2022-07-30T21:56:16.214Z,24.62
2022-07-30T21:58:45.471Z,24.59
2022-07-30T22:01:22.462Z,24.56
2022-07-30T22:04:02.796Z,24.54
2022-07-30T22:06:42.893Z,24.50
2022-07-30T22:09:19.062Z,24.47
2022-07-30T22:12:09.233Z,24.45
2022-07-30T22:14:39.548Z,24.43
2022-07-30T22:17:22.389Z,24.42
2022-07-30T22:19:52.226Z,24.41
2022-07-30T22:22:27.041Z,24.40
2022-07-30T22:24:58.160Z,24.41
2022-07-30T22:27:39.506Z,24.40
2022-07-30T22:30:10.240Z,24.41
2022-07-30T22:32:43.594Z,24.41
2022-07-30T22:35:16.375Z,24.39
2022-07-30T22:37:46.167Z,24.38
2022-07-30T22:40:16.493Z,24.35
2022-07-30T22:42:46.801Z,24.32
2022-07-30T22:45:34.108Z,24.29
2022-07-30T22:48:10.812Z,24.27
2022-07-30T22:50:40.775Z,24.24
2022-07-30T22:53:56.659Z,24.21
2022-07-30T22:55:59.416Z,24.19
2022-07-30T22:58:29.626Z,24.16
2022-07-30T23:00:58.216Z,24.12
2022-07-30T23:03:26.801Z,24.08
2022-07-30T23:05:57.179Z,24.06
2022-07-30T23:08:29.468Z,24.04
2022-07-30T23:11:02.491Z,24.03
2022-07-30T23:13:31.074Z,24.03
2022-07-30T23:15:59.657Z,24.00
2022-07-30T23:18:29.165Z,23.97
2022-07-30T23:21:00.441Z,23.93
2022-07-30T23:23:34.069Z,23.90
2022-07-30T23:26:04.963Z,23.88
2022-07-30T23:28:34.051Z,23.86
2022-07-30T23:31:03.825Z,23.84
2022-07-30T23:33:33.268Z,23.83
2022-07-30T23:36:05.949Z,23.79
2022-07-30T23:38:34.907Z,23.76
2022-07-30T23:41:04.624Z,23.73
2022-07-30T23:43:36.681Z,23.71
2022-07-30T23:46:05.307Z,23.66
2022-07-30T23:48:40.038Z,23.65
2022-07-30T23:51:08.660Z,23.61
2022-07-30T23:53:37.248Z,23.58
2022-07-30T23:56:05.867Z,23.55
2022-07-30T23:58:34.682Z,23.53
